createdAt,value
2022-11-23T00:00:29.611Z,98.68
2022-11-23T00:10:35.308Z,98.55
2022-11-23T00:20:42.939Z,98.59
2022-11-23T00:30:52.308Z,98.31
2022-11-23T00:41:02.510Z,98.28
2022-11-23T00:51:11.238Z,98.21
2022-11-23T01:01:18.363Z,98.28
2022-11-23T01:11:25.361Z,98.23
2022-11-23T01:21:31.057Z,98.37
2022-11-23T01:31:40.526Z,98.18
2022-11-23T01:41:48.783Z,98.22
2022-11-23T01:51:58.932Z,97.90
2022-11-23T02:02:05.538Z,97.90
2022-11-23T02:12:13.733Z,97.90
2022-11-23T02:22:27.821Z,97.83
2022-11-23T02:32:35.564Z,98.01
2022-11-23T02:42:41.906Z,97.83
2022-11-23T02:52:47.504Z,97.59
2022-11-23T03:02:53.059Z,97.72
2022-11-23T03:12:59.143Z,97.53
2022-11-23T03:23:04.665Z,97.60
2022-11-23T03:33:10.276Z,97.56
2022-11-23T03:43:16.323Z,97.84
2022-11-23T03:53:22.085Z,97.98
2022-11-23T04:03:27.803Z,98.10
2022-11-23T04:13:33.414Z,98.14
2022-11-23T04:23:39.455Z,98.40
2022-11-23T04:33:45.185Z,98.55
2022-11-23T04:43:51.855Z,98.11
2022-11-23T04:53:57.433Z,98.45
2022-11-23T05:04:03.101Z,98.30
2022-11-23T05:14:08.756Z,98.63
2022-11-23T05:24:14.677Z,99.05
2022-11-23T05:34:20.504Z,99.09
2022-11-23T05:44:26.099Z,99.59
2022-11-23T05:54:31.723Z,99.46
2022-11-23T06:04:37.309Z,99.38
2022-11-23T06:14:43.065Z,99.54
2022-11-23T06:24:48.652Z,99.52
2022-11-23T06:34:59.368Z,99.27
2022-11-23T06:45:08.133Z,99.07
2022-11-23T06:55:13.746Z,99.35
2022-11-23T07:05:19.515Z,99.36
2022-11-23T07:15:25.113Z,99.25
2022-11-23T07:25:31.143Z,99.46
2022-11-23T07:35:37.603Z,99.48
2022-11-23T07:45:41.914Z,99.58
2022-11-23T07:55:47.953Z,99.47
2022-11-23T08:05:53.682Z,99.36
2022-11-23T08:15:59.284Z,99.48
2022-11-23T08:26:12.012Z,99.21
2022-11-23T08:36:20.336Z,99.00
2022-11-23T08:46:25.878Z,99.10
2022-11-23T08:56:31.508Z,98.84
2022-11-23T09:06:37.413Z,98.24
2022-11-23T09:16:42.972Z,97.93
2022-11-23T09:26:48.897Z,97.49
2022-11-23T09:36:54.466Z,97.36
2022-11-23T09:47:17.417Z,96.82
2022-11-23T09:57:26.213Z,96.29
2022-11-23T10:07:48.417Z,95.54
2022-11-23T10:18:15.202Z,94.81
2022-11-23T10:28:24.028Z,93.55
2022-11-23T10:38:30.421Z,91.79
2022-11-23T10:48:38.100Z,91.07
2022-11-23T10:58:47.278Z,90.01
2022-11-23T11:08:55.515Z,89.43
2022-11-23T11:19:01.746Z,89.03
2022-11-23T11:29:10.010Z,88.82
2022-11-23T11:39:21.775Z,89.08
2022-11-23T11:49:31.456Z,88.50
2022-11-23T11:59:43.712Z,87.89
2022-11-23T12:09:52.058Z,88.02
2022-11-23T12:20:06.696Z,87.96
2022-11-23T12:30:26.205Z,86.99
2022-11-23T12:40:58.196Z,86.63
2022-11-23T12:51:14.781Z,86.99
2022-11-23T13:01:30.601Z,87.20
2022-11-23T13:11:58.450Z,87.28
2022-11-23T13:22:07.129Z,87.47
2022-11-23T13:32:47.955Z,87.98
2022-11-23T13:42:55.435Z,88.24
2022-11-23T13:52:59.583Z,88.75
2022-11-23T14:03:39.823Z,89.14
2022-11-23T14:13:52.935Z,89.57
2022-11-23T14:24:38.899Z,89.97
2022-11-23T14:34:55.684Z,90.27
2022-11-23T14:45:14.315Z,90.54
2022-11-23T14:55:22.733Z,90.88
2022-11-23T15:05:32.272Z,91.17
2022-11-23T15:15:39.650Z,91.33
2022-11-23T15:25:54.783Z,91.68
2022-11-23T15:36:00.452Z,91.87
2022-11-23T15:46:14.394Z,92.10
2022-11-23T15:56:28.289Z,92.11
2022-11-23T16:06:41.461Z,92.25
2022-11-23T16:16:49.242Z,92.39
2022-11-23T16:26:55.151Z,92.62
2022-11-23T16:37:03.963Z,92.71
2022-11-23T16:47:28.350Z,92.85
2022-11-23T16:57:36.187Z,92.97
2022-11-23T17:07:41.846Z,93.09
2022-11-23T17:17:47.649Z,93.70
2022-11-23T17:27:53.451Z,93.73
2022-11-23T17:37:59.078Z,93.87
2022-11-23T17:48:05.257Z,94.17
2022-11-23T17:58:12.608Z,94.41
2022-11-23T18:08:18.218Z,94.57
2022-11-23T18:18:24.094Z,94.49
2022-11-23T18:28:30.406Z,94.68
2022-11-23T18:38:36.897Z,94.67
2022-11-23T18:48:41.307Z,94.74
2022-11-23T18:58:48.431Z,94.62
2022-11-23T19:08:56.890Z,95.04
2022-11-23T19:19:04.488Z,94.98
2022-11-23T19:29:10.047Z,95.10
2022-11-23T19:39:15.730Z,95.05
2022-11-23T19:49:21.550Z,95.05
2022-11-23T19:59:27.857Z,95.17
2022-11-23T20:09:33.915Z,95.26
2022-11-23T20:19:39.752Z,95.48
2022-11-23T20:29:45.511Z,95.46
2022-11-23T20:39:52.949Z,95.47
2022-11-23T20:49:58.582Z,95.66
2022-11-23T21:00:04.453Z,95.74
2022-11-23T21:10:31.297Z,95.54
2022-11-23T21:20:37.284Z,95.52
2022-11-23T21:30:43.861Z,95.49
2022-11-23T21:40:49.647Z,95.40
2022-11-23T21:51:03.126Z,95.54
2022-11-23T22:01:12.282Z,95.72
2022-11-23T22:11:20.440Z,95.79
2022-11-23T22:21:27.928Z,95.97
2022-11-23T22:31:34.435Z,96.14
2022-11-23T22:41:41.093Z,96.22
2022-11-23T22:51:45.372Z,96.20
2022-11-23T23:01:51.109Z,96.40
2022-11-23T23:11:56.808Z,96.30
2022-11-23T23:22:02.532Z,96.19
2022-11-23T23:32:08.543Z,95.98
2022-11-23T23:42:14.343Z,95.96
2022-11-23T23:52:20.329Z,96.23
